sensor_id;sensor_type;location;lat;lon;timestamp;temperature;humidity
23731;DHT22;12046;44.702;10.622;2023-03-21T00:00:58;10.10;1.00
23731;DHT22;12046;44.702;10.622;2023-03-21T00:03:25;10.10;1.00
23731;DHT22;12046;44.702;10.622;2023-03-21T00:05:51;10.00;1.00
23731;DHT22;12046;44.702;10.622;2023-03-21T00:08:19;10.00;1.00
23731;DHT22;12046;44.702;10.622;2023-03-21T00:10:45;10.00;1.00
23731;DHT22;12046;44.702;10.622;2023-03-21T00:13:12;9.90;1.00
23731;DHT22;12046;44.702;10.622;2023-03-21T00:15:39;9.90;1.00
23731;DHT22;12046;44.702;10.622;2023-03-21T00:18:17;9.80;1.00
23731;DHT22;12046;44.702;10.622;2023-03-21T00:20:43;9.80;1.00
23731;DHT22;12046;44.702;10.622;2023-03-21T00:23:16;9.70;1.00
23731;DHT22;12046;44.702;10.622;2023-03-21T00:25:42;9.70;1.00
23731;DHT22;12046;44.702;10.622;2023-03-21T00:28:07;9.70;1.00
23731;DHT22;12046;44.702;10.622;2023-03-21T00:30:33;9.70;1.00
23731;DHT22;12046;44.702;10.622;2023-03-21T00:32:59;9.70;1.00
23731;DHT22;12046;44.702;10.622;2023-03-21T00:35:25;9.70;1.00
23731;DHT22;12046;44.702;10.622;2023-03-21T00:37:51;9.70;1.00
23731;DHT22;12046;44.702;10.622;2023-03-21T00:40:17;9.70;1.00
23731;DHT22;12046;44.702;10.622;2023-03-21T00:42:43;9.70;1.00
23731;DHT22;12046;44.702;10.622;2023-03-21T00:45:09;9.70;1.00
23731;DHT22;12046;44.702;10.622;2023-03-21T00:47:36;9.70;1.00
23731;DHT22;12046;44.702;10.622;2023-03-21T00:50:03;9.70;1.00
23731;DHT22;12046;44.702;10.622;2023-03-21T00:52:29;9.70;1.00
23731;DHT22;12046;44.702;10.622;2023-03-21T00:54:55;9.70;1.00
23731;DHT22;12046;44.702;10.622;2023-03-21T00:57:20;9.70;1.00
23731;DHT22;12046;44.702;10.622;2023-03-21T00:59:46;9.70;1.00
23731;DHT22;12046;44.702;10.622;2023-03-21T01:02:12;9.70;1.00
23731;DHT22;12046;44.702;10.622;2023-03-21T01:04:39;9.80;1.00
23731;DHT22;12046;44.702;10.622;2023-03-21T01:07:05;9.80;1.00
23731;DHT22;12046;44.702;10.622;2023-03-21T01:09:31;9.80;1.00
23731;DHT22;12046;44.702;10.622;2023-03-21T01:11:57;9.80;1.00
23731;DHT22;12046;44.702;10.622;2023-03-21T01:14:23;9.90;1.00
23731;DHT22;12046;44.702;10.622;2023-03-21T01:16:50;9.90;1.00
23731;DHT22;12046;44.702;10.622;2023-03-21T01:19:19;9.90;1.00
23731;DHT22;12046;44.702;10.622;2023-03-21T01:21:45;9.90;1.00
23731;DHT22;12046;44.702;10.622;2023-03-21T01:24:11;9.90;1.00
23731;DHT22;12046;44.702;10.622;2023-03-21T01:26:37;9.90;1.00
23731;DHT22;12046;44.702;10.622;2023-03-21T01:29:03;9.80;1.00
23731;DHT22;12046;44.702;10.622;2023-03-21T01:31:30;9.80;1.00
23731;DHT22;12046;44.702;10.622;2023-03-21T01:33:55;9.70;1.00
23731;DHT22;12046;44.702;10.622;2023-03-21T01:36:23;9.70;1.00
23731;DHT22;12046;44.702;10.622;2023-03-21T01:38:50;9.70;1.00
23731;DHT22;12046;44.702;10.622;2023-03-21T01:41:20;9.60;1.00
23731;DHT22;12046;44.702;10.622;2023-03-21T01:43:49;9.60;1.00
23731;DHT22;12046;44.702;10.622;2023-03-21T01:46:43;9.60;1.00
23731;DHT22;12046;44.702;10.622;2023-03-21T01:49:18;9.50;1.00
23731;DHT22;12046;44.702;10.622;2023-03-21T01:51:46;9.50;1.00
23731;DHT22;12046;44.702;10.622;2023-03-21T01:54:28;9.50;1.00
23731;DHT22;12046;44.702;10.622;2023-03-21T01:56:58;9.50;1.00
23731;DHT22;12046;44.702;10.622;2023-03-21T01:59:32;9.50;1.00
23731;DHT22;12046;44.702;10.622;2023-03-21T02:02:03;9.50;1.00
23731;DHT22;12046;44.702;10.622;2023-03-21T02:04:33;9.50;1.00
23731;DHT22;12046;44.702;10.622;2023-03-21T02:07:08;9.40;1.00
23731;DHT22;12046;44.702;10.622;2023-03-21T02:09:37;9.40;1.00
23731;DHT22;12046;44.702;10.622;2023-03-21T02:12:05;9.40;1.00
23731;DHT22;12046;44.702;10.622;2023-03-21T02:14:35;9.40;1.00
23731;DHT22;12046;44.702;10.622;2023-03-21T02:26:10;9.50;1.00
23731;DHT22;12046;44.702;10.622;2023-03-21T02:31:59;9.60;1.00
23731;DHT22;12046;44.702;10.622;2023-03-21T02:37:30;9.70;1.00
23731;DHT22;12046;44.702;10.622;2023-03-21T02:40:00;9.70;1.00
23731;DHT22;12046;44.702;10.622;2023-03-21T02:48:04;9.80;1.00
23731;DHT22;12046;44.702;10.622;2023-03-21T02:50:42;9.80;1.00
23731;DHT22;12046;44.702;10.622;2023-03-21T02:53:10;9.80;1.00
23731;DHT22;12046;44.702;10.622;2023-03-21T02:55:39;9.80;1.00
23731;DHT22;12046;44.702;10.622;2023-03-21T02:58:11;9.80;1.00
23731;DHT22;12046;44.702;10.622;2023-03-21T03:00:38;9.80;1.00
23731;DHT22;12046;44.702;10.622;2023-03-21T03:03:04;9.80;1.00
23731;DHT22;12046;44.702;10.622;2023-03-21T03:05:34;9.80;1.00
23731;DHT22;12046;44.702;10.622;2023-03-21T03:08:13;9.80;1.00
23731;DHT22;12046;44.702;10.622;2023-03-21T03:10:57;9.70;1.00
23731;DHT22;12046;44.702;10.622;2023-03-21T03:18:51;9.70;1.00
23731;DHT22;12046;44.702;10.622;2023-03-21T03:22:22;9.70;1.00
23731;DHT22;12046;44.702;10.622;2023-03-21T03:24:32;9.60;1.00
23731;DHT22;12046;44.702;10.622;2023-03-21T03:27:02;9.70;1.00
23731;DHT22;12046;44.702;10.622;2023-03-21T03:29:32;9.70;1.00
23731;DHT22;12046;44.702;10.622;2023-03-21T03:32:23;9.70;1.00
23731;DHT22;12046;44.702;10.622;2023-03-21T03:34:53;9.60;1.00
23731;DHT22;12046;44.702;10.622;2023-03-21T03:37:28;9.60;1.00
23731;DHT22;12046;44.702;10.622;2023-03-21T03:40:04;9.60;1.00
23731;DHT22;12046;44.702;10.622;2023-03-21T03:42:36;9.60;1.00
23731;DHT22;12046;44.702;10.622;2023-03-21T03:45:04;9.60;1.00
23731;DHT22;12046;44.702;10.622;2023-03-21T03:47:41;9.60;1.00
23731;DHT22;12046;44.702;10.622;2023-03-21T03:52:40;9.60;1.00
23731;DHT22;12046;44.702;10.622;2023-03-21T03:55:10;9.50;1.00
23731;DHT22;12046;44.702;10.622;2023-03-21T03:57:38;9.50;1.00
23731;DHT22;12046;44.702;10.622;2023-03-21T04:00:05;9.50;1.00
23731;DHT22;12046;44.702;10.622;2023-03-21T04:02:37;9.50;1.00
23731;DHT22;12046;44.702;10.622;2023-03-21T04:05:04;9.50;1.00
23731;DHT22;12046;44.702;10.622;2023-03-21T04:07:30;9.50;1.00
23731;DHT22;12046;44.702;10.622;2023-03-21T04:09:56;9.50;1.00
23731;DHT22;12046;44.702;10.622;2023-03-21T04:12:22;9.40;1.00
23731;DHT22;12046;44.702;10.622;2023-03-21T04:14:48;9.40;1.00
23731;DHT22;12046;44.702;10.622;2023-03-21T04:17:15;9.40;1.00
23731;DHT22;12046;44.702;10.622;2023-03-21T04:19:41;9.40;1.00
23731;DHT22;12046;44.702;10.622;2023-03-21T04:22:07;9.30;1.00
23731;DHT22;12046;44.702;10.622;2023-03-21T04:24:33;9.30;1.00
23731;DHT22;12046;44.702;10.622;2023-03-21T04:27:02;9.30;1.00
23731;DHT22;12046;44.702;10.622;2023-03-21T04:29:30;9.20;1.00
23731;DHT22;12046;44.702;10.622;2023-03-21T04:31:56;9.20;1.00
23731;DHT22;12046;44.702;10.622;2023-03-21T04:34:22;9.20;1.00
23731;DHT22;12046;44.702;10.622;2023-03-21T04:36:51;9.20;1.00
23731;DHT22;12046;44.702;10.622;2023-03-21T04:39:19;9.20;1.00
23731;DHT22;12046;44.702;10.622;2023-03-21T04:41:45;9.20;1.00
23731;DHT22;12046;44.702;10.622;2023-03-21T04:44:13;9.20;1.00
23731;DHT22;12046;44.702;10.622;2023-03-21T04:46:40;9.20;1.00
23731;DHT22;12046;44.702;10.622;2023-03-21T04:49:06;9.20;1.00
23731;DHT22;12046;44.702;10.622;2023-03-21T04:51:33;9.20;1.00
23731;DHT22;12046;44.702;10.622;2023-03-21T04:53:59;9.20;1.00
23731;DHT22;12046;44.702;10.622;2023-03-21T04:56:26;9.20;1.00
23731;DHT22;12046;44.702;10.622;2023-03-21T04:59:01;9.20;1.00
23731;DHT22;12046;44.702;10.622;2023-03-21T05:01:27;9.20;1.00
23731;DHT22;12046;44.702;10.622;2023-03-21T05:04:00;9.10;1.00
23731;DHT22;12046;44.702;10.622;2023-03-21T05:06:26;9.10;1.00
23731;DHT22;12046;44.702;10.622;2023-03-21T05:08:53;9.10;1.00
23731;DHT22;12046;44.702;10.622;2023-03-21T05:11:21;9.10;1.00
23731;DHT22;12046;44.702;10.622;2023-03-21T05:13:47;9.10;1.00
23731;DHT22;12046;44.702;10.622;2023-03-21T05:16:13;9.00;1.00
23731;DHT22;12046;44.702;10.622;2023-03-21T05:18:39;9.10;1.00
23731;DHT22;12046;44.702;10.622;2023-03-21T05:21:05;9.00;1.00
23731;DHT22;12046;44.702;10.622;2023-03-21T05:23:36;9.10;1.00
23731;DHT22;12046;44.702;10.622;2023-03-21T05:26:06;9.00;1.00
23731;DHT22;12046;44.702;10.622;2023-03-21T05:28:32;9.00;1.00
23731;DHT22;12046;44.702;10.622;2023-03-21T05:31:07;8.90;1.00
23731;DHT22;12046;44.702;10.622;2023-03-21T05:36:27;8.90;1.00
23731;DHT22;12046;44.702;10.622;2023-03-21T05:38:52;8.90;1.00
23731;DHT22;12046;44.702;10.622;2023-03-21T05:41:18;8.80;1.00
23731;DHT22;12046;44.702;10.622;2023-03-21T05:43:46;8.80;1.00
23731;DHT22;12046;44.702;10.622;2023-03-21T05:46:12;8.80;1.00
23731;DHT22;12046;44.702;10.622;2023-03-21T05:48:37;8.90;1.00
23731;DHT22;12046;44.702;10.622;2023-03-21T05:51:04;8.90;1.00
23731;DHT22;12046;44.702;10.622;2023-03-21T05:53:30;8.90;1.00
23731;DHT22;12046;44.702;10.622;2023-03-21T05:55:56;8.90;1.00
23731;DHT22;12046;44.702;10.622;2023-03-21T05:58:22;9.00;1.00
23731;DHT22;12046;44.702;10.622;2023-03-21T06:00:47;9.10;1.00
23731;DHT22;12046;44.702;10.622;2023-03-21T06:03:13;9.10;1.00
23731;DHT22;12046;44.702;10.622;2023-03-21T06:05:39;9.20;1.00
23731;DHT22;12046;44.702;10.622;2023-03-21T06:08:05;9.30;1.00
23731;DHT22;12046;44.702;10.622;2023-03-21T06:10:31;9.30;1.00
23731;DHT22;12046;44.702;10.622;2023-03-21T06:12:56;9.40;1.00
23731;DHT22;12046;44.702;10.622;2023-03-21T06:15:22;9.50;1.00
23731;DHT22;12046;44.702;10.622;2023-03-21T06:17:48;9.50;1.00
23731;DHT22;12046;44.702;10.622;2023-03-21T06:20:14;9.70;1.00
23731;DHT22;12046;44.702;10.622;2023-03-21T06:22:39;9.80;1.00
23731;DHT22;12046;44.702;10.622;2023-03-21T06:25:06;9.90;1.00
23731;DHT22;12046;44.702;10.622;2023-03-21T06:27:33;10.00;1.00
23731;DHT22;12046;44.702;10.622;2023-03-21T06:29:58;10.10;1.00
23731;DHT22;12046;44.702;10.622;2023-03-21T06:32:25;10.20;1.00
23731;DHT22;12046;44.702;10.622;2023-03-21T06:34:51;10.30;1.00
23731;DHT22;12046;44.702;10.622;2023-03-21T06:37:17;10.40;1.00
23731;DHT22;12046;44.702;10.622;2023-03-21T06:39:43;10.50;1.00
23731;DHT22;12046;44.702;10.622;2023-03-21T06:42:09;10.70;1.00
23731;DHT22;12046;44.702;10.622;2023-03-21T06:44:35;10.80;1.00
23731;DHT22;12046;44.702;10.622;2023-03-21T06:47:01;10.90;1.00
23731;DHT22;12046;44.702;10.622;2023-03-21T06:49:27;11.10;1.00
23731;DHT22;12046;44.702;10.622;2023-03-21T06:51:53;11.20;1.00
23731;DHT22;12046;44.702;10.622;2023-03-21T06:54:19;11.30;1.00
23731;DHT22;12046;44.702;10.622;2023-03-21T06:56:45;11.50;1.00
23731;DHT22;12046;44.702;10.622;2023-03-21T06:59:12;11.60;1.00
23731;DHT22;12046;44.702;10.622;2023-03-21T07:01:50;11.70;1.00
23731;DHT22;12046;44.702;10.622;2023-03-21T07:04:16;11.90;1.00
23731;DHT22;12046;44.702;10.622;2023-03-21T07:06:42;12.00;1.00
23731;DHT22;12046;44.702;10.622;2023-03-21T07:09:07;12.10;96.50
23731;DHT22;12046;44.702;10.622;2023-03-21T07:11:35;12.30;99.90
23731;DHT22;12046;44.702;10.622;2023-03-21T07:14:00;12.40;99.90
23731;DHT22;12046;44.702;10.622;2023-03-21T07:16:26;12.50;99.90
23731;DHT22;12046;44.702;10.622;2023-03-21T07:18:52;12.60;99.90
23731;DHT22;12046;44.702;10.622;2023-03-21T07:21:18;12.80;99.90
23731;DHT22;12046;44.702;10.622;2023-03-21T07:23:44;12.90;99.90
23731;DHT22;12046;44.702;10.622;2023-03-21T07:26:11;13.00;99.90
23731;DHT22;12046;44.702;10.622;2023-03-21T07:28:37;13.20;99.90
23731;DHT22;12046;44.702;10.622;2023-03-21T07:31:05;13.40;99.90
23731;DHT22;12046;44.702;10.622;2023-03-21T07:33:33;13.50;99.90
23731;DHT22;12046;44.702;10.622;2023-03-21T07:35:59;13.70;99.90
23731;DHT22;12046;44.702;10.622;2023-03-21T07:38:29;13.90;99.90
23731;DHT22;12046;44.702;10.622;2023-03-21T07:40:58;14.10;99.90
23731;DHT22;12046;44.702;10.622;2023-03-21T07:43:24;14.30;99.90
23731;DHT22;12046;44.702;10.622;2023-03-21T07:45:50;14.60;99.90
23731;DHT22;12046;44.702;10.622;2023-03-21T07:48:16;14.80;99.90
23731;DHT22;12046;44.702;10.622;2023-03-21T07:50:42;15.00;99.90
23731;DHT22;12046;44.702;10.622;2023-03-21T07:53:08;15.20;99.90
23731;DHT22;12046;44.702;10.622;2023-03-21T07:55:34;15.40;99.90
23731;DHT22;12046;44.702;10.622;2023-03-21T07:58:01;15.50;99.90
23731;DHT22;12046;44.702;10.622;2023-03-21T08:00:27;15.70;99.90
23731;DHT22;12046;44.702;10.622;2023-03-21T08:02:55;15.90;99.90
23731;DHT22;12046;44.702;10.622;2023-03-21T08:05:22;16.00;99.90
23731;DHT22;12046;44.702;10.622;2023-03-21T08:07:49;16.20;99.90
23731;DHT22;12046;44.702;10.622;2023-03-21T08:10:16;16.30;99.90
23731;DHT22;12046;44.702;10.622;2023-03-21T08:12:43;16.50;99.90
23731;DHT22;12046;44.702;10.622;2023-03-21T08:15:09;16.60;99.90
23731;DHT22;12046;44.702;10.622;2023-03-21T08:17:35;16.80;99.90
23731;DHT22;12046;44.702;10.622;2023-03-21T08:20:04;16.90;99.90
23731;DHT22;12046;44.702;10.622;2023-03-21T08:22:34;17.10;99.90
23731;DHT22;12046;44.702;10.622;2023-03-21T08:25:02;17.30;99.90
23731;DHT22;12046;44.702;10.622;2023-03-21T08:27:30;17.40;99.90
23731;DHT22;12046;44.702;10.622;2023-03-21T08:29:56;17.60;99.90
23731;DHT22;12046;44.702;10.622;2023-03-21T08:32:22;17.70;99.90
23731;DHT22;12046;44.702;10.622;2023-03-21T08:34:58;17.80;99.90
23731;DHT22;12046;44.702;10.622;2023-03-21T08:37:24;18.00;99.90
23731;DHT22;12046;44.702;10.622;2023-03-21T08:39:51;18.10;99.40
23731;DHT22;12046;44.702;10.622;2023-03-21T08:42:17;18.30;99.30
23731;DHT22;12046;44.702;10.622;2023-03-21T08:44:43;18.40;99.10
23731;DHT22;12046;44.702;10.622;2023-03-21T08:47:10;18.60;98.90
23731;DHT22;12046;44.702;10.622;2023-03-21T08:49:36;18.70;98.60
23731;DHT22;12046;44.702;10.622;2023-03-21T08:52:03;18.80;98.10
23731;DHT22;12046;44.702;10.622;2023-03-21T08:54:28;18.90;97.80
23731;DHT22;12046;44.702;10.622;2023-03-21T08:56:54;19.10;97.60
23731;DHT22;12046;44.702;10.622;2023-03-21T08:59:20;19.20;97.20
23731;DHT22;12046;44.702;10.622;2023-03-21T09:01:46;19.30;96.80
23731;DHT22;12046;44.702;10.622;2023-03-21T09:04:12;19.40;95.60
23731;DHT22;12046;44.702;10.622;2023-03-21T09:06:39;19.30;95.50
23731;DHT22;12046;44.702;10.622;2023-03-21T09:09:13;19.40;95.50
23731;DHT22;12046;44.702;10.622;2023-03-21T09:11:40;19.40;95.40
23731;DHT22;12046;44.702;10.622;2023-03-21T09:14:06;19.40;95.40
23731;DHT22;12046;44.702;10.622;2023-03-21T09:16:32;19.50;95.30
23731;DHT22;12046;44.702;10.622;2023-03-21T09:18:58;19.60;95.10
23731;DHT22;12046;44.702;10.622;2023-03-21T09:21:25;19.60;95.10
23731;DHT22;12046;44.702;10.622;2023-03-21T09:23:53;19.70;95.00
23731;DHT22;12046;44.702;10.622;2023-03-21T09:26:22;19.90;94.90
23731;DHT22;12046;44.702;10.622;2023-03-21T09:28:48;19.90;94.90
23731;DHT22;12046;44.702;10.622;2023-03-21T09:31:16;20.10;94.90
23731;DHT22;12046;44.702;10.622;2023-03-21T09:33:48;20.30;94.80
23731;DHT22;12046;44.702;10.622;2023-03-21T09:36:14;20.60;94.50
23731;DHT22;12046;44.702;10.622;2023-03-21T09:38:44;20.90;94.30
23731;DHT22;12046;44.702;10.622;2023-03-21T09:44:18;22.60;93.10
23731;DHT22;12046;44.702;10.622;2023-03-21T09:49:26;25.40;88.80
23731;DHT22;12046;44.702;10.622;2023-03-21T09:51:58;27.10;84.10
23731;DHT22;12046;44.702;10.622;2023-03-21T09:54:34;28.60;79.70
23731;DHT22;12046;44.702;10.622;2023-03-21T09:57:08;29.70;76.30
23731;DHT22;12046;44.702;10.622;2023-03-21T09:59:38;30.00;73.20
23731;DHT22;12046;44.702;10.622;2023-03-21T10:05:20;28.80;72.20
23731;DHT22;12046;44.702;10.622;2023-03-21T10:10:27;27.50;72.70
23731;DHT22;12046;44.702;10.622;2023-03-21T10:12:55;27.00;72.80
23731;DHT22;12046;44.702;10.622;2023-03-21T10:15:24;26.70;72.70
23731;DHT22;12046;44.702;10.622;2023-03-21T10:18:01;26.30;72.90
23731;DHT22;12046;44.702;10.622;2023-03-21T10:20:32;25.90;73.30
23731;DHT22;12046;44.702;10.622;2023-03-21T10:23:00;25.60;73.40
23731;DHT22;12046;44.702;10.622;2023-03-21T10:25:50;25.40;73.60
23731;DHT22;12046;44.702;10.622;2023-03-21T10:28:20;25.10;73.40
23731;DHT22;12046;44.702;10.622;2023-03-21T10:31:02;24.70;74.10
23731;DHT22;12046;44.702;10.622;2023-03-21T10:33:37;24.50;74.70
23731;DHT22;12046;44.702;10.622;2023-03-21T10:36:08;24.50;74.70
23731;DHT22;12046;44.702;10.622;2023-03-21T10:38:39;24.40;74.30
23731;DHT22;12046;44.702;10.622;2023-03-21T10:41:10;24.40;74.70
23731;DHT22;12046;44.702;10.622;2023-03-21T10:43:39;24.40;74.70
23731;DHT22;12046;44.702;10.622;2023-03-21T10:46:26;24.60;73.90
23731;DHT22;12046;44.702;10.622;2023-03-21T10:48:52;24.60;74.40
23731;DHT22;12046;44.702;10.622;2023-03-21T10:51:21;24.70;74.80
23731;DHT22;12046;44.702;10.622;2023-03-21T10:53:54;24.80;74.40
23731;DHT22;12046;44.702;10.622;2023-03-21T10:56:26;24.90;74.30
23731;DHT22;12046;44.702;10.622;2023-03-21T10:58:53;24.90;73.90
23731;DHT22;12046;44.702;10.622;2023-03-21T11:01:39;25.10;73.70
23731;DHT22;12046;44.702;10.622;2023-03-21T11:04:09;25.20;73.70
23731;DHT22;12046;44.702;10.622;2023-03-21T11:06:41;25.30;73.60
23731;DHT22;12046;44.702;10.622;2023-03-21T11:09:18;25.50;73.00
23731;DHT22;12046;44.702;10.622;2023-03-21T11:11:54;25.60;72.10
23731;DHT22;12046;44.702;10.622;2023-03-21T11:14:36;25.70;72.10
23731;DHT22;12046;44.702;10.622;2023-03-21T11:17:24;25.90;72.10
23731;DHT22;12046;44.702;10.622;2023-03-21T11:19:57;26.00;71.60
23731;DHT22;12046;44.702;10.622;2023-03-21T11:22:26;26.10;70.20
23731;DHT22;12046;44.702;10.622;2023-03-21T11:24:58;26.20;70.40
23731;DHT22;12046;44.702;10.622;2023-03-21T11:27:28;26.20;70.20
23731;DHT22;12046;44.702;10.622;2023-03-21T11:29:56;26.20;69.60
23731;DHT22;12046;44.702;10.622;2023-03-21T11:32:34;26.10;69.50
23731;DHT22;12046;44.702;10.622;2023-03-21T11:37:38;26.00;70.40
23731;DHT22;12046;44.702;10.622;2023-03-21T11:42:54;26.10;70.20
23731;DHT22;12046;44.702;10.622;2023-03-21T11:47:57;26.30;70.50
23731;DHT22;12046;44.702;10.622;2023-03-21T11:50:44;26.30;70.20
23731;DHT22;12046;44.702;10.622;2023-03-21T11:59:26;26.30;69.30
23731;DHT22;12046;44.702;10.622;2023-03-21T12:09:42;26.20;68.90
23731;DHT22;12046;44.702;10.622;2023-03-21T12:20:39;26.20;68.30
23731;DHT22;12046;44.702;10.622;2023-03-21T12:39:33;26.20;66.20
23731;DHT22;12046;44.702;10.622;2023-03-21T12:44:47;25.80;67.60
23731;DHT22;12046;44.702;10.622;2023-03-21T12:47:23;25.70;68.00
23731;DHT22;12046;44.702;10.622;2023-03-21T12:50:04;25.60;68.30
23731;DHT22;12046;44.702;10.622;2023-03-21T12:52:51;25.50;68.80
23731;DHT22;12046;44.702;10.622;2023-03-21T12:55:31;25.50;68.90
23731;DHT22;12046;44.702;10.622;2023-03-21T12:58:19;25.60;68.70
23731;DHT22;12046;44.702;10.622;2023-03-21T13:00:54;25.60;68.30
23731;DHT22;12046;44.702;10.622;2023-03-21T13:06:27;25.60;67.20
23731;DHT22;12046;44.702;10.622;2023-03-21T13:09:11;25.60;67.80
23731;DHT22;12046;44.702;10.622;2023-03-21T13:11:39;25.60;68.30
23731;DHT22;12046;44.702;10.622;2023-03-21T13:14:16;25.70;68.80
23731;DHT22;12046;44.702;10.622;2023-03-21T13:16:55;25.70;68.00
23731;DHT22;12046;44.702;10.622;2023-03-21T13:22:04;25.60;68.70
23731;DHT22;12046;44.702;10.622;2023-03-21T13:24:41;25.60;69.00
23731;DHT22;12046;44.702;10.622;2023-03-21T13:27:25;25.60;69.10
23731;DHT22;12046;44.702;10.622;2023-03-21T13:30:01;25.60;68.80
23731;DHT22;12046;44.702;10.622;2023-03-21T13:32:41;25.60;68.10
23731;DHT22;12046;44.702;10.622;2023-03-21T13:35:31;25.70;68.00
23731;DHT22;12046;44.702;10.622;2023-03-21T13:38:02;25.70;67.60
23731;DHT22;12046;44.702;10.622;2023-03-21T13:40:44;25.60;66.90
23731;DHT22;12046;44.702;10.622;2023-03-21T13:46:10;25.40;67.10
23731;DHT22;12046;44.702;10.622;2023-03-21T13:48:53;25.30;66.50
23731;DHT22;12046;44.702;10.622;2023-03-21T13:54:00;25.10;66.80
23731;DHT22;12046;44.702;10.622;2023-03-21T13:56:26;25.00;67.20
23731;DHT22;12046;44.702;10.622;2023-03-21T13:58:57;24.90;66.90
23731;DHT22;12046;44.702;10.622;2023-03-21T14:01:38;24.80;66.90
23731;DHT22;12046;44.702;10.622;2023-03-21T14:04:19;24.70;66.70
23731;DHT22;12046;44.702;10.622;2023-03-21T14:09:34;24.70;67.20
23731;DHT22;12046;44.702;10.622;2023-03-21T14:12:04;24.80;67.50
23731;DHT22;12046;44.702;10.622;2023-03-21T14:14:39;24.90;67.10
23731;DHT22;12046;44.702;10.622;2023-03-21T14:17:19;24.90;66.90
23731;DHT22;12046;44.702;10.622;2023-03-21T14:19:54;25.00;66.80
23731;DHT22;12046;44.702;10.622;2023-03-21T14:22:20;25.10;65.60
23731;DHT22;12046;44.702;10.622;2023-03-21T14:24:47;25.00;65.50
23731;DHT22;12046;44.702;10.622;2023-03-21T14:27:13;25.00;64.90
23731;DHT22;12046;44.702;10.622;2023-03-21T14:29:39;24.90;65.10
23731;DHT22;12046;44.702;10.622;2023-03-21T14:32:13;24.90;64.80
23731;DHT22;12046;44.702;10.622;2023-03-21T14:34:43;24.70;64.40
23731;DHT22;12046;44.702;10.622;2023-03-21T14:37:11;24.70;64.90
23731;DHT22;12046;44.702;10.622;2023-03-21T14:39:36;24.60;65.10
23731;DHT22;12046;44.702;10.622;2023-03-21T14:42:07;24.60;65.40
23731;DHT22;12046;44.702;10.622;2023-03-21T14:44:41;24.70;66.10
23731;DHT22;12046;44.702;10.622;2023-03-21T14:47:17;24.70;65.70
23731;DHT22;12046;44.702;10.622;2023-03-21T14:49:43;24.60;65.70
23731;DHT22;12046;44.702;10.622;2023-03-21T14:52:28;24.60;65.80
23731;DHT22;12046;44.702;10.622;2023-03-21T14:54:55;24.60;65.90
23731;DHT22;12046;44.702;10.622;2023-03-21T14:57:24;24.60;65.60
23731;DHT22;12046;44.702;10.622;2023-03-21T15:00:02;24.60;65.40
23731;DHT22;12046;44.702;10.622;2023-03-21T15:02:39;24.70;65.50
23731;DHT22;12046;44.702;10.622;2023-03-21T15:07:55;24.50;65.60
23731;DHT22;12046;44.702;10.622;2023-03-21T15:10:22;24.30;65.80
23731;DHT22;12046;44.702;10.622;2023-03-21T15:13:00;24.20;65.70
23731;DHT22;12046;44.702;10.622;2023-03-21T15:15:28;24.10;65.60
23731;DHT22;12046;44.702;10.622;2023-03-21T15:17:59;24.20;65.70
23731;DHT22;12046;44.702;10.622;2023-03-21T15:20:31;24.10;65.70
23731;DHT22;12046;44.702;10.622;2023-03-21T15:23:46;24.10;66.00
23731;DHT22;12046;44.702;10.622;2023-03-21T15:25:47;24.10;66.00
23731;DHT22;12046;44.702;10.622;2023-03-21T15:28:13;24.00;66.00
23731;DHT22;12046;44.702;10.622;2023-03-21T15:30:49;24.00;66.10
23731;DHT22;12046;44.702;10.622;2023-03-21T15:33:16;24.00;66.40
23731;DHT22;12046;44.702;10.622;2023-03-21T15:35:53;23.80;66.40
23731;DHT22;12046;44.702;10.622;2023-03-21T15:40:47;23.70;67.10
23731;DHT22;12046;44.702;10.622;2023-03-21T15:43:17;23.60;67.20
23731;DHT22;12046;44.702;10.622;2023-03-21T15:45:50;23.60;67.40
23731;DHT22;12046;44.702;10.622;2023-03-21T15:48:20;23.50;67.10
23731;DHT22;12046;44.702;10.622;2023-03-21T15:51:36;23.50;67.20
23731;DHT22;12046;44.702;10.622;2023-03-21T15:53:37;23.30;66.90
23731;DHT22;12046;44.702;10.622;2023-03-21T15:56:08;23.20;67.00
23731;DHT22;12046;44.702;10.622;2023-03-21T15:58:43;22.90;67.60
23731;DHT22;12046;44.702;10.622;2023-03-21T16:01:20;22.90;66.90
23731;DHT22;12046;44.702;10.622;2023-03-21T16:03:54;22.70;66.70
23731;DHT22;12046;44.702;10.622;2023-03-21T16:06:22;22.60;66.30
23731;DHT22;12046;44.702;10.622;2023-03-21T16:09:05;22.50;65.90
23731;DHT22;12046;44.702;10.622;2023-03-21T16:11:42;22.40;66.10
23731;DHT22;12046;44.702;10.622;2023-03-21T16:14:09;22.30;66.10
23731;DHT22;12046;44.702;10.622;2023-03-21T16:16:35;22.20;65.70
23731;DHT22;12046;44.702;10.622;2023-03-21T16:19:01;22.10;65.20
23731;DHT22;12046;44.702;10.622;2023-03-21T16:21:29;22.00;63.00
23731;DHT22;12046;44.702;10.622;2023-03-21T16:23:56;21.90;62.50
23731;DHT22;12046;44.702;10.622;2023-03-21T16:26:31;21.80;59.70
23731;DHT22;12046;44.702;10.622;2023-03-21T16:28:57;21.60;56.40
23731;DHT22;12046;44.702;10.622;2023-03-21T16:31:27;21.50;16.00
23731;DHT22;12046;44.702;10.622;2023-03-21T16:33:54;21.50;99.90
23731;DHT22;12046;44.702;10.622;2023-03-21T16:36:23;21.40;95.00
23731;DHT22;12046;44.702;10.622;2023-03-21T16:38:49;21.30;73.90
23731;DHT22;12046;44.702;10.622;2023-03-21T16:41:17;21.20;70.30
23731;DHT22;12046;44.702;10.622;2023-03-21T16:43:43;21.10;58.10
23731;DHT22;12046;44.702;10.622;2023-03-21T16:46:11;21.00;25.10
23731;DHT22;12046;44.702;10.622;2023-03-21T16:48:38;20.90;64.20
23731;DHT22;12046;44.702;10.622;2023-03-21T16:51:04;20.80;58.60
23731;DHT22;12046;44.702;10.622;2023-03-21T16:53:30;20.70;58.30
23731;DHT22;12046;44.702;10.622;2023-03-21T16:55:55;20.60;65.90
23731;DHT22;12046;44.702;10.622;2023-03-21T16:58:27;20.50;70.50
23731;DHT22;12046;44.702;10.622;2023-03-21T17:00:54;20.40;57.30
23731;DHT22;12046;44.702;10.622;2023-03-21T17:03:19;20.30;61.00
23731;DHT22;12046;44.702;10.622;2023-03-21T17:05:46;20.20;59.10
23731;DHT22;12046;44.702;10.622;2023-03-21T17:08:17;20.20;65.00
23731;DHT22;12046;44.702;10.622;2023-03-21T17:10:44;20.10;54.20
23731;DHT22;12046;44.702;10.622;2023-03-21T17:13:10;20.00;35.20
23731;DHT22;12046;44.702;10.622;2023-03-21T17:15:36;20.00;42.40
23731;DHT22;12046;44.702;10.622;2023-03-21T17:18:03;19.90;53.10
23731;DHT22;12046;44.702;10.622;2023-03-21T17:20:33;19.80;39.80
23731;DHT22;12046;44.702;10.622;2023-03-21T17:23:02;19.80;35.40
23731;DHT22;12046;44.702;10.622;2023-03-21T17:25:27;19.70;26.40
23731;DHT22;12046;44.702;10.622;2023-03-21T17:27:54;19.70;20.70
23731;DHT22;12046;44.702;10.622;2023-03-21T17:30:29;19.60;28.20
23731;DHT22;12046;44.702;10.622;2023-03-21T17:32:55;19.60;45.80
23731;DHT22;12046;44.702;10.622;2023-03-21T17:35:22;19.50;14.80